Time;durP1;ratioP1;P1;durP2;ratioP2;P2;SDS_P1;SDS_P2;PMS_P1;PMS_P2;Temp;Humidity;BMP_temperature;BMP_pressure;BME280_temperature;BME280_humidity;BME280_pressure;Samples;Min_cycle;Max_cycle;Signal;HPM_P1;HPM_P2
2022/10/05 00:00:24;;;;;;;;;;;;;;;;;;1044210;28;19917;-77
2022/10/05 00:00:54;;;;;;;;;;;;;;;;;;1044507;28;19913;-77
2022/10/05 00:01:25;;;;;;;;;;;;;;;;;;1044357;28;19916;-77
2022/10/05 00:01:55;;;;;;;;;;;;;;;;;;1044455;28;19913;-77
2022/10/05 00:02:26;;;;;;;;;;;;;;;;;;1044623;28;20387;-76
2022/10/05 00:02:56;;;;;;;;;;;;;;;;;;1045074;28;19956;-77
2022/10/05 00:03:26;;;;;;;;;;;;;;;;;;1045431;28;20288;-77
2022/10/05 00:03:57;;;;;;;;;;;;;;;;;;1044847;28;19924;-77
2022/10/05 00:04:28;;;;;;;;;;;;;;;;;;1044822;28;19948;-76
2022/10/05 00:04:58;;;;;;;;;;;;;;;;;;1044745;28;19917;-77
2022/10/05 00:05:28;;;;;;;;;;;;;;;;;;1044260;28;20048;-77
2022/10/05 00:05:58;;;;;;;;;;;;;;;;;;1042300;28;20442;-77
2022/10/05 00:06:29;;;;;;;;;;;;;;;;;;1040812;28;19920;-77
2022/10/05 00:06:59;;;;;;;;;;;;;;;;;;1043510;28;19913;-77
2022/10/05 00:07:29;;;;;;;;;;;;;;;;;;1044313;28;19917;-77
2022/10/05 00:08:00;;;;;;;;;;;;;;;;;;1044831;28;19913;-77
2022/10/05 00:08:30;;;;;;;;;;;;;;;;;;1044640;28;19986;-77
2022/10/05 00:09:00;;;;;;;;;;;;;;;;;;1044815;28;20319;-77
2022/10/05 00:09:31;;;;;;;;;;;;;;;;;;1044248;28;19912;-77
2022/10/05 00:10:01;;;;;;;;;;;;;;;;;;1044376;28;19917;-77
2022/10/05 00:10:31;;;;;;;;;;;;;;;;;;1044402;28;20000;-77
2022/10/05 00:11:02;;;;;;;;;;;;;;;;;;1044366;28;19913;-77
2022/10/05 00:11:32;;;;;;;;;;;;;;;;;;1044684;28;19999;-77
2022/10/05 00:12:02;;;;;;;;;;;;;;;;;;1044605;28;19913;-77
2022/10/05 00:12:33;;;;;;;;;;;;;;;;;;1044606;28;20300;-77
2022/10/05 00:13:03;;;;;;;;;;;;;;;;;;1044568;28;20010;-77
2022/10/05 00:13:33;;;;;;;;;;;;;;;;;;1044759;28;19909;-77
2022/10/05 00:14:03;;;;;;;;;;;;;;;;;;1046611;28;19935;-76
2022/10/05 00:14:34;;;;;;;;;;;;;;;;;;1044205;28;20392;-77
2022/10/05 00:15:04;;;;;;;;;;;;;;;;;;1044465;28;19913;-77
2022/10/05 00:15:34;;;;;;;;;;;;;;;;;;1044430;28;20396;-76
2022/10/05 00:16:04;;;;;;;;;;;;;;;;;;1044090;28;19913;-76
2022/10/05 00:16:35;;;;;;;;;;;;;;;;;;1044413;28;19959;-77
2022/10/05 00:17:05;;;;;;;;;;;;;;;;;;1044406;28;19913;-77
2022/10/05 00:17:35;;;;;;;;;;;;;;;;;;1044183;28;19921;-77
2022/10/05 00:18:05;;;;;;;;;;;;;;;;;;1040101;28;19913;-77
2022/10/05 00:18:36;;;;;;;;;;;;;;;;;;1040126;28;19913;-77
2022/10/05 00:19:06;;;;;;;;;;;;;;;;;;1040183;28;20020;-77
2022/10/05 00:19:36;;;;;;;;;;;;;;;;;;1040340;28;19921;-77
2022/10/05 00:20:06;;;;;;;;;;;;;;;;;;1044381;28;19916;-77
2022/10/05 00:20:37;;;;;;;;;;;;;;;;;;1044361;28;19986;-77
2022/10/05 00:21:07;;;;;;;;;;;;;;;;;;1040087;28;19921;-77
2022/10/05 00:21:37;;;;;;;;;;;;;;;;;;1044256;28;20002;-77
2022/10/05 00:22:07;;;;;;;;;;;;;;;;;;1044356;28;19912;-77
2022/10/05 00:22:38;;;;;;;;;;;;;;;;;;1044408;28;19920;-76
2022/10/05 00:23:08;;;;;;;;;;;;;;;;;;1045993;28;19916;-77
2022/10/05 00:23:38;;;;;;;;;;;;;;;;;;1044314;28;19913;-77
2022/10/05 00:24:09;;;;;;;;;;;;;;;;;;1044264;28;19935;-77
2022/10/05 00:24:39;;;;;;;;;;;;;;;;;;1044238;28;19912;-77
2022/10/05 00:25:10;;;;;;;;;;;;;;;;;;1043734;28;19913;-77
2022/10/05 00:25:40;;;;;;;;;;;;;;;;;;1039705;28;20345;-77
2022/10/05 00:26:10;;;;;;;;;;;;;;;;;;1037955;28;19945;-77
2022/10/05 00:26:40;;;;;;;;;;;;;;;;;;1042260;28;20552;-77
2022/10/05 00:27:11;;;;;;;;;;;;;;;;;;1042408;28;20591;-77
2022/10/05 00:27:41;;;;;;;;;;;;;;;;;;1044265;28;20030;-77
2022/10/05 00:28:11;;;;;;;;;;;;;;;;;;1044313;28;19917;-77
2022/10/05 00:28:42;;;;;;;;;;;;;;;;;;1044710;28;19916;-77
2022/10/05 00:29:12;;;;;;;;;;;;;;;;;;1044634;28;19920;-77
2022/10/05 00:29:42;;;;;;;;;;;;;;;;;;1044629;28;20394;-77
2022/10/05 00:30:12;;;;;;;;;;;;;;;;;;1044546;28;19913;-76
2022/10/05 00:30:43;;;;;;;;;;;;;;;;;;1044555;28;19987;-76
2022/10/05 00:31:13;;;;;;;;;;;;;;;;;;1044610;28;19917;-77
2022/10/05 00:31:43;;;;;;;;;;;;;;;;;;1044584;28;19916;-77
2022/10/05 00:32:13;;;;;;;;;;;;;;;;;;1044440;28;19920;-77
2022/10/05 00:32:44;;;;;;;;;;;;;;;;;;1044275;28;20006;-77
2022/10/05 00:33:14;;;;;;;;;;;;;;;;;;1044537;28;19917;-77
2022/10/05 00:33:44;;;;;;;;;;;;;;;;;;1043734;28;19963;-77
2022/10/05 00:34:15;;;;;;;;;;;;;;;;;;1044880;28;19912;-77
2022/10/05 00:34:45;;;;;;;;;;;;;;;;;;1045057;28;19966;-77
2022/10/05 00:35:15;;;;;;;;;;;;;;;;;;1044595;28;19913;-77
2022/10/05 00:35:45;;;;;;;;;;;;;;;;;;1044467;28;19913;-77
2022/10/05 00:36:16;;;;;;;;;;;;;;;;;;1043273;28;19955;-77
2022/10/05 00:36:46;;;;;;;;;;;;;;;;;;1044619;28;19913;-77
2022/10/05 00:37:16;;;;;;;;;;;;;;;;;;1043839;28;19913;-77
2022/10/05 00:37:47;;;;;;;;;;;;;;;;;;1043917;28;19919;-77
2022/10/05 00:38:17;;;;;;;;;;;;;;;;;;1044331;28;19941;-77
2022/10/05 00:38:47;;;;;;;;;;;;;;;;;;1044198;28;20376;-77
2022/10/05 00:39:17;;;;;;;;;;;;;;;;;;1044262;28;19960;-77
2022/10/05 00:39:48;;;;;;;;;;;;;;;;;;1044091;28;19912;-77
2022/10/05 00:40:18;;;;;;;;;;;;;;;;;;1044098;28;19939;-77
2022/10/05 00:40:48;;;;;;;;;;;;;;;;;;1043851;28;19927;-77
2022/10/05 00:41:19;;;;;;;;;;;;;;;;;;1044381;28;20007;-77
2022/10/05 00:41:49;;;;;;;;;;;;;;;;;;1044555;28;19919;-77
2022/10/05 00:42:19;;;;;;;;;;;;;;;;;;1043988;28;19913;-77
2022/10/05 00:42:50;;;;;;;;;;;;;;;;;;1044006;28;19951;-77
2022/10/05 00:43:20;;;;;;;;;;;;;;;;;;1043979;28;19912;-77
2022/10/05 00:43:50;;;;;;;;;;;;;;;;;;1044248;28;20419;-77
2022/10/05 00:44:20;;;;;;;;;;;;;;;;;;1043992;28;19919;-77
2022/10/05 00:44:51;;;;;;;;;;;;;;;;;;1044166;28;19917;-77
2022/10/05 00:45:21;;;;;;;;;;;;;;;;;;1044218;28;20297;-77
2022/10/05 00:45:52;;;;;;;;;;;;;;;;;;1044243;28;19918;-76
2022/10/05 00:46:22;;;;;;;;;;;;;;;;;;1043980;28;19917;-76
2022/10/05 00:46:52;;;;;;;;;;;;;;;;;;1044698;28;20451;-76
2022/10/05 00:47:22;;;;;;;;;;;;;;;;;;1044523;28;19913;-77
2022/10/05 00:47:53;;;;;;;;;;;;;;;;;;1044597;28;20288;-77
2022/10/05 00:48:23;;;;;;;;;;;;;;;;;;1044425;28;19913;-76
2022/10/05 00:48:53;;;;;;;;;;;;;;;;;;1045061;28;19958;-76
2022/10/05 00:49:23;;;;;;;;;;;;;;;;;;1042101;28;19920;-77
2022/10/05 00:49:54;;;;;;;;;;;;;;;;;;1043661;28;19913;-76
2022/10/05 00:50:24;;;;;;;;;;;;;;;;;;1043744;28;19983;-76
2022/10/05 00:50:54;;;;;;;;;;;;;;;;;;1044300;28;19920;-76
2022/10/05 00:51:25;;;;;;;;;;;;;;;;;;1043923;28;20336;-77
2022/10/05 00:51:55;;;;;;;;;;;;;;;;;;1041159;28;19913;-77
2022/10/05 00:52:25;;;;;;;;;;;;;;;;;;1041731;28;20007;-77
2022/10/05 00:52:56;;;;;;;;;;;;;;;;;;1041295;28;19920;-76
2022/10/05 00:53:26;;;;;;;;;;;;;;;;;;1046185;28;19939;-77
2022/10/05 00:53:56;;;;;;;;;;;;;;;;;;1044575;28;19951;-77
2022/10/05 00:54:26;;;;;;;;;;;;;;;;;;1043731;28;19912;-76
2022/10/05 00:54:57;;;;;;;;;;;;;;;;;;1044292;28;19923;-76
2022/10/05 00:55:27;;;;;;;;;;;;;;;;;;1043872;28;19925;-77
2022/10/05 00:55:57;;;;;;;;;;;;;;;;;;1043953;28;19966;-77
2022/10/05 00:56:28;;;;;;;;;;;;;;;;;;1043690;28;19912;-77
2022/10/05 00:56:58;;;;;;;;;;;;;;;;;;1044516;28;19913;-76
2022/10/05 00:57:28;;;;;;;;;;;;;;;;;;1043886;28;19920;-76
2022/10/05 00:57:58;;;;;;;;;;;;;;;;;;1044184;28;19913;-77
2022/10/05 00:58:29;;;;;;;;;;;;;;;;;;1043892;28;20003;-77
2022/10/05 00:58:59;;;;;;;;;;;;;;;;;;1044275;28;19913;-77
2022/10/05 00:59:29;;;;;;;;;;;;;;;;;;1044010;28;19927;-77
2022/10/05 01:00:00;;;;;;;;;;;;;;;;;;1044181;28;20437;-77
2022/10/05 01:00:30;;;;;;;;;;;;;;;;;;1043937;28;19939;-77
2022/10/05 01:01:00;;;;;;;;;;;;;;;;;;1044155;28;19940;-77
2022/10/05 01:01:30;;;;;;;;;;;;;;;;;;1044059;28;19916;-77
2022/10/05 01:02:01;;;;;;;;;;;;;;;;;;1044025;28;20181;-77
2022/10/05 01:02:31;;;;;;;;;;;;;;;;;;1043826;28;19960;-76
2022/10/05 01:03:01;;;;;;;;;;;;;;;;;;1044247;28;19921;-76
2022/10/05 01:03:32;;;;;;;;;;;;;;;;;;1044292;28;20339;-77
2022/10/05 01:04:02;;;;;;;;;;;;;;;;;;1044202;28;19928;-77
2022/10/05 01:04:32;;;;;;;;;;;;;;;;;;1043693;28;20336;-77
2022/10/05 01:05:02;;;;;;;;;;;;;;;;;;1043028;28;19996;-77
2022/10/05 01:05:33;;;;;;;;;;;;;;;;;;1044127;28;19917;-78
2022/10/05 01:06:03;;;;;;;;;;;;;;;;;;1043814;28;19913;-78
2022/10/05 01:06:34;;;;;;;;;;;;;;;;;;1043888;28;19913;-78
2022/10/05 01:07:04;;;;;;;;;;;;;;;;;;1043694;28;19936;-78
2022/10/05 01:07:34;;;;;;;;;;;;;;;;;;1044165;28;19912;-78
2022/10/05 01:08:05;;;;;;;;;;;;;;;;;;1044001;28;19919;-78
2022/10/05 01:08:35;;;;;;;;;;;;;;;;;;1044031;28;19913;-78
2022/10/05 01:09:06;;;;;;;;;;;;;;;;;;1044300;28;19913;-77
2022/10/05 01:09:36;;;;;;;;;;;;;;;;;;1043984;28;19928;-78
2022/10/05 01:10:06;;;;;;;;;;;;;;;;;;1039868;28;20288;-77
2022/10/05 01:10:36;;;;;;;;;;;;;;;;;;1039834;28;19920;-78
2022/10/05 01:11:07;;;;;;;;;;;;;;;;;;1044098;28;19920;-78
2022/10/05 01:11:37;;;;;;;;;;;;;;;;;;1043827;28;19923;-78
2022/10/05 01:12:07;;;;;;;;;;;;;;;;;;1044477;28;19916;-78
2022/10/05 01:12:38;;;;;;;;;;;;;;;;;;1043551;28;20012;-78
2022/10/05 01:13:08;;;;;;;;;;;;;;;;;;1044088;28;19964;-78
2022/10/05 01:13:38;;;;;;;;;;;;;;;;;;1041859;28;19920;-78
2022/10/05 01:14:08;;;;;;;;;;;;;;;;;;1041958;28;20380;-78
2022/10/05 01:14:39;;;;;;;;;;;;;;;;;;1043774;28;19921;-79
2022/10/05 01:15:09;;;;;;;;;;;;;;;;;;1041856;28;20003;-78
2022/10/05 01:15:40;;;;;;;;;;;;;;;;;;1040127;28;20384;-78
2022/10/05 01:16:10;;;;;;;;;;;;;;;;;;1035566;28;19968;-78
2022/10/05 01:16:40;;;;;;;;;;;;;;;;;;1036183;28;20270;-78
2022/10/05 01:17:11;;;;;;;;;;;;;;;;;;1040418;28;19920;-78
2022/10/05 01:17:41;;;;;;;;;;;;;;;;;;1038730;28;19918;-78
2022/10/05 01:18:12;;;;;;;;;;;;;;;;;;1039932;28;19921;-78
2022/10/05 01:18:42;;;;;;;;;;;;;;;;;;1044166;28;19963;-78
2022/10/05 01:19:12;;;;;;;;;;;;;;;;;;1042554;28;19972;-78
2022/10/05 01:19:43;;;;;;;;;;;;;;;;;;1043935;28;20382;-77
2022/10/05 01:20:13;;;;;;;;;;;;;;;;;;1044292;28;19920;-77
2022/10/05 01:20:43;;;;;;;;;;;;;;;;;;1041570;28;19920;-77
2022/10/05 01:21:14;;;;;;;;;;;;;;;;;;1041031;28;19917;-77
2022/10/05 01:21:44;;;;;;;;;;;;;;;;;;1041477;28;20367;-76
2022/10/05 01:22:14;;;;;;;;;;;;;;;;;;1043551;28;20324;-76
2022/10/05 01:22:44;;;;;;;;;;;;;;;;;;1043590;28;19971;-76
2022/10/05 01:23:17;;;;;;;;;;;;;;;;;;1043279;28;19916;-76
2022/10/05 01:23:47;;;;;;;;;;;;;;;;;;1042596;28;19916;-77
2022/10/05 01:24:17;;;;;;;;;;;;;;;;;;1043022;28;20284;-76
2022/10/05 01:24:48;;;;;;;;;;;;;;;;;;1033808;28;20067;-76
2022/10/05 01:25:18;;;;;;;;;;;;;;;;;;1043004;28;19943;-76
2022/10/05 01:25:54;;;;;;;;;;;;;;;;;;1044679;28;19966;-79
2022/10/05 01:26:25;;;;;;;;;;;;;;;;;;1040409;28;20499;-78
2022/10/05 01:26:55;;;;;;;;;;;;;;;;;;1040312;28;20011;-77
2022/10/05 01:27:25;;;;;;;;;;;;;;;;;;1040621;28;19925;-77
2022/10/05 01:27:56;;;;;;;;;;;;;;;;;;1042119;28;19912;-76
2022/10/05 01:28:26;;;;;;;;;;;;;;;;;;1041546;28;19970;-77
2022/10/05 01:28:59;;;;;;;;;;;;;;;;;;1044188;28;20562;-82
2022/10/05 01:29:30;;;;;;;;;;;;;;;;;;1042649;28;20035;-77
2022/10/05 01:30:00;;;;;;;;;;;;;;;;;;1044056;28;19913;-76
2022/10/05 01:30:30;;;;;;;;;;;;;;;;;;1041720;28;19971;-77
2022/10/05 01:31:01;;;;;;;;;;;;;;;;;;1042951;28;19929;-76
2022/10/05 01:31:31;;;;;;;;;;;;;;;;;;1042677;28;19917;-78
2022/10/05 01:32:02;;;;;;;;;;;;;;;;;;1039144;28;20987;-77
2022/10/05 01:32:32;;;;;;;;;;;;;;;;;;1039897;28;20464;-77
2022/10/05 01:33:02;;;;;;;;;;;;;;;;;;1044869;28;19951;-77
2022/10/05 01:33:33;;;;;;;;;;;;;;;;;;1039952;28;19948;-78
2022/10/05 01:34:10;;;;;;;;;;;;;;;;;;1038222;28;19989;-78
2022/10/05 01:34:41;;;;;;;;;;;;;;;;;;1038237;28;19916;-78
2022/10/05 01:35:11;;;;;;;;;;;;;;;;;;1038840;28;19921;-78
2022/10/05 01:35:42;;;;;;;;;;;;;;;;;;1041383;28;20281;-78
2022/10/05 01:36:13;;;;;;;;;;;;;;;;;;1033772;28;19928;-77
2022/10/05 01:36:43;;;;;;;;;;;;;;;;;;1030168;28;19925;-77
2022/10/05 01:37:13;;;;;;;;;;;;;;;;;;1035598;28;20604;-77
2022/10/05 01:37:44;;;;;;;;;;;;;;;;;;1035029;28;19917;-76
2022/10/05 01:38:14;;;;;;;;;;;;;;;;;;1036205;28;20448;-77
2022/10/05 01:38:45;;;;;;;;;;;;;;;;;;1038829;28;19921;-77
2022/10/05 01:39:15;;;;;;;;;;;;;;;;;;1037993;28;19921;-76
2022/10/05 01:39:45;;;;;;;;;;;;;;;;;;1037483;28;20254;-78
2022/10/05 01:40:16;;;;;;;;;;;;;;;;;;1036857;28;20510;-76
2022/10/05 01:40:46;;;;;;;;;;;;;;;;;;1041282;28;20040;-79
2022/10/05 01:41:18;;;;;;;;;;;;;;;;;;1042091;28;19912;-79
2022/10/05 01:41:48;;;;;;;;;;;;;;;;;;1049707;28;19938;-78
2022/10/05 01:42:18;;;;;;;;;;;;;;;;;;1044788;28;19928;-78
2022/10/05 01:42:49;;;;;;;;;;;;;;;;;;1042409;28;19919;-79
2022/10/05 01:43:19;;;;;;;;;;;;;;;;;;1042853;28;20648;-77
2022/10/05 01:43:50;;;;;;;;;;;;;;;;;;1042048;28;19921;-78
2022/10/05 01:44:20;;;;;;;;;;;;;;;;;;1042058;28;19928;-77
2022/10/05 01:44:50;;;;;;;;;;;;;;;;;;1041430;28;20368;-77
2022/10/05 01:45:21;;;;;;;;;;;;;;;;;;1041895;28;19917;-77
2022/10/05 01:45:51;;;;;;;;;;;;;;;;;;1041123;28;20384;-78
2022/10/05 01:46:21;;;;;;;;;;;;;;;;;;1041959;28;19925;-76
2022/10/05 01:46:52;;;;;;;;;;;;;;;;;;1039132;28;19959;-76
2022/10/05 01:47:22;;;;;;;;;;;;;;;;;;1038382;28;19956;-77
2022/10/05 01:47:53;;;;;;;;;;;;;;;;;;1040320;28;19921;-77
2022/10/05 01:48:23;;;;;;;;;;;;;;;;;;1038936;28;19921;-77
2022/10/05 01:48:54;;;;;;;;;;;;;;;;;;1040283;28;19921;-77
2022/10/05 01:49:24;;;;;;;;;;;;;;;;;;1038684;28;19917;-78
2022/10/05 01:49:54;;;;;;;;;;;;;;;;;;1039646;28;20063;-78
2022/10/05 01:50:24;;;;;;;;;;;;;;;;;;1039848;28;19917;-78
2022/10/05 01:50:55;;;;;;;;;;;;;;;;;;1041479;28;19912;-78
2022/10/05 01:51:25;;;;;;;;;;;;;;;;;;1044103;28;19924;-78
2022/10/05 01:51:55;;;;;;;;;;;;;;;;;;1043243;28;19952;-78
2022/10/05 01:52:26;;;;;;;;;;;;;;;;;;1042951;28;20499;-77
2022/10/05 01:52:56;;;;;;;;;;;;;;;;;;1043364;28;19983;-78
2022/10/05 01:53:26;;;;;;;;;;;;;;;;;;1043132;28;20766;-77
2022/10/05 01:53:57;;;;;;;;;;;;;;;;;;1040863;28;20027;-78
2022/10/05 01:54:27;;;;;;;;;;;;;;;;;;1037729;28;19921;-77
2022/10/05 01:54:58;;;;;;;;;;;;;;;;;;1042498;28;19913;-77
2022/10/05 01:55:28;;;;;;;;;;;;;;;;;;1042459;28;20388;-79
2022/10/05 01:55:59;;;;;;;;;;;;;;;;;;1044583;28;20354;-79
2022/10/05 01:56:30;;;;;;;;;;;;;;;;;;1041017;28;19921;-80
2022/10/05 01:57:00;;;;;;;;;;;;;;;;;;1041376;28;20403;-80
2022/10/05 01:57:31;;;;;;;;;;;;;;;;;;1036755;28;20459;-79
2022/10/05 01:58:01;;;;;;;;;;;;;;;;;;1038628;28;19917;-78
2022/10/05 01:58:32;;;;;;;;;;;;;;;;;;1037499;28;20019;-78
2022/10/05 01:59:02;;;;;;;;;;;;;;;;;;1041770;28;19964;-79
2022/10/05 01:59:33;;;;;;;;;;;;;;;;;;1041246;28;20312;-79
2022/10/05 02:00:03;;;;;;;;;;;;;;;;;;1040865;28;20156;-79
2022/10/05 02:00:34;;;;;;;;;;;;;;;;;;1042781;28;20019;-79
2022/10/05 02:01:07;;;;;;;;;;;;;;;;;;1042538;28;19986;-79
2022/10/05 02:01:38;;;;;;;;;;;;;;;;;;1038468;28;20065;-79
2022/10/05 02:02:11;;;;;;;;;;;;;;;;;;1034031;28;20000;-79
2022/10/05 02:02:42;;;;;;;;;;;;;;;;;;1031571;28;19918;-79
2022/10/05 02:03:13;;;;;;;;;;;;;;;;;;1035869;28;20008;-79
2022/10/05 02:03:44;;;;;;;;;;;;;;;;;;1040532;28;19921;-79
2022/10/05 02:04:14;;;;;;;;;;;;;;;;;;1039035;28;19924;-78
2022/10/05 02:04:45;;;;;;;;;;;;;;;;;;1038433;28;20003;-78
2022/10/05 02:05:16;;;;;;;;;;;;;;;;;;1040113;28;19963;-78
2022/10/05 02:05:49;;;;;;;;;;;;;;;;;;1040020;28;20011;-78
2022/10/05 02:06:20;;;;;;;;;;;;;;;;;;1039918;28;20440;-77
2022/10/05 02:06:50;;;;;;;;;;;;;;;;;;1042880;28;19921;-78
2022/10/05 02:07:21;;;;;;;;;;;;;;;;;;1037669;28;19967;-77
2022/10/05 02:07:51;;;;;;;;;;;;;;;;;;1036092;28;20001;-78
2022/10/05 02:08:21;;;;;;;;;;;;;;;;;;1036553;28;20305;-78
2022/10/05 02:08:52;;;;;;;;;;;;;;;;;;1036455;28;19918;-78
2022/10/05 02:09:23;;;;;;;;;;;;;;;;;;1034586;28;19941;-78
2022/10/05 02:09:54;;;;;;;;;;;;;;;;;;1034730;28;20015;-79
2022/10/05 02:10:26;;;;;;;;;;;;;;;;;;1035392;28;20000;-78
2022/10/05 02:10:56;;;;;;;;;;;;;;;;;;1042742;28;19921;-78
2022/10/05 02:11:27;;;;;;;;;;;;;;;;;;1042499;28;20357;-79
2022/10/05 02:11:57;;;;;;;;;;;;;;;;;;1043355;28;19975;-77
2022/10/05 02:12:28;;;;;;;;;;;;;;;;;;1042858;28;20252;-78
2022/10/05 02:12:58;;;;;;;;;;;;;;;;;;1043115;28;19956;-78
2022/10/05 02:13:29;;;;;;;;;;;;;;;;;;1051530;28;19983;-78
2022/10/05 02:14:00;;;;;;;;;;;;;;;;;;1043072;28;19916;-78
2022/10/05 02:14:31;;;;;;;;;;;;;;;;;;1042882;28;19916;-77
2022/10/05 02:15:02;;;;;;;;;;;;;;;;;;1046992;28;20502;-77
2022/10/05 02:15:32;;;;;;;;;;;;;;;;;;1042329;28;19963;-78
2022/10/05 02:16:02;;;;;;;;;;;;;;;;;;1041531;28;19928;-78
2022/10/05 02:16:33;;;;;;;;;;;;;;;;;;1046236;28;20437;-77
2022/10/05 02:17:04;;;;;;;;;;;;;;;;;;1041476;28;20291;-78
2022/10/05 02:17:34;;;;;;;;;;;;;;;;;;1041782;28;19913;-78
2022/10/05 02:18:05;;;;;;;;;;;;;;;;;;1038301;28;20099;-79
2022/10/05 02:18:36;;;;;;;;;;;;;;;;;;1037550;28;19917;-79
2022/10/05 02:19:06;;;;;;;;;;;;;;;;;;1033556;28;19914;-79
2022/10/05 02:19:36;;;;;;;;;;;;;;;;;;1034652;28;19914;-79
2022/10/05 02:20:07;;;;;;;;;;;;;;;;;;1036464;28;20844;-80
2022/10/05 02:20:38;;;;;;;;;;;;;;;;;;1041135;28;19914;-79
2022/10/05 02:21:08;;;;;;;;;;;;;;;;;;1038626;28;20337;-79
2022/10/05 02:21:39;;;;;;;;;;;;;;;;;;1041253;28;19920;-79
2022/10/05 02:22:09;;;;;;;;;;;;;;;;;;1039462;28;20455;-79
2022/10/05 02:22:40;;;;;;;;;;;;;;;;;;1039244;28;19913;-79
2022/10/05 02:23:10;;;;;;;;;;;;;;;;;;1032941;28;19922;-77
2022/10/05 02:23:41;;;;;;;;;;;;;;;;;;1034969;28;19932;-78
2022/10/05 02:24:13;;;;;;;;;;;;;;;;;;1034738;28;20293;-78
2022/10/05 02:24:43;;;;;;;;;;;;;;;;;;1037050;28;19921;-78
2022/10/05 02:25:14;;;;;;;;;;;;;;;;;;1038877;28;20407;-79
2022/10/05 02:25:45;;;;;;;;;;;;;;;;;;1039204;28;19999;-79
2022/10/05 02:26:15;;;;;;;;;;;;;;;;;;1036781;28;19913;-78
2022/10/05 02:26:45;;;;;;;;;;;;;;;;;;1038202;28;19940;-78
2022/10/05 02:27:16;;;;;;;;;;;;;;;;;;1041669;28;19912;-79
2022/10/05 02:27:46;;;;;;;;;;;;;;;;;;1037151;28;19936;-78
2022/10/05 02:28:17;;;;;;;;;;;;;;;;;;1031460;28;19917;-78
2022/10/05 02:28:47;;;;;;;;;;;;;;;;;;1037815;28;19917;-78
2022/10/05 02:29:18;;;;;;;;;;;;;;;;;;1038379;28;20446;-79
2022/10/05 02:29:51;;;;;;;;;;;;;;;;;;1037064;28;19995;-80
2022/10/05 02:30:23;;;;;;;;;;;;;;;;;;1033508;28;19917;-80
2022/10/05 02:30:53;;;;;;;;;;;;;;;;;;1027753;28;19925;-80
2022/10/05 02:31:24;;;;;;;;;;;;;;;;;;1027600;28;20472;-79
2022/10/05 02:31:56;;;;;;;;;;;;;;;;;;1034280;28;19921;-79
2022/10/05 02:33:07;;;;;;;;;;;;;;;;;;1060144;23;19999;-80
2022/10/05 02:33:37;;;;;;;;;;;;;;;;;;1037779;28;20286;-80
2022/10/05 02:34:08;;;;;;;;;;;;;;;;;;1038256;28;20393;-79
2022/10/05 02:34:38;;;;;;;;;;;;;;;;;;1043009;28;19917;-79
2022/10/05 02:35:09;;;;;;;;;;;;;;;;;;1042014;28;20012;-79
2022/10/05 02:35:39;;;;;;;;;;;;;;;;;;1047504;28;19916;-78
2022/10/05 02:36:09;;;;;;;;;;;;;;;;;;1041214;28;19916;-80
2022/10/05 02:36:40;;;;;;;;;;;;;;;;;;1040599;28;19982;-79
2022/10/05 02:37:11;;;;;;;;;;;;;;;;;;1039910;28;20393;-79
2022/10/05 02:37:41;;;;;;;;;;;;;;;;;;1041664;28;19927;-79
2022/10/05 02:38:13;;;;;;;;;;;;;;;;;;1045731;28;20293;-80
2022/10/05 02:38:44;;;;;;;;;;;;;;;;;;1039064;28;20283;-78
2022/10/05 02:39:14;;;;;;;;;;;;;;;;;;1037658;28;19927;-78
2022/10/05 02:39:45;;;;;;;;;;;;;;;;;;1037812;28;20076;-78
2022/10/05 02:40:16;;;;;;;;;;;;;;;;;;1036111;28;20000;-78
2022/10/05 02:40:46;;;;;;;;;;;;;;;;;;1040947;28;19923;-79
2022/10/05 02:41:17;;;;;;;;;;;;;;;;;;1039354;28;19928;-79
2022/10/05 02:41:47;;;;;;;;;;;;;;;;;;1042588;28;20481;-77
2022/10/05 02:42:18;;;;;;;;;;;;;;;;;;1044868;28;19916;-77
2022/10/05 02:42:48;;;;;;;;;;;;;;;;;;1041457;28;20281;-77
2022/10/05 02:43:19;;;;;;;;;;;;;;;;;;1041428;28;19986;-78
2022/10/05 02:43:49;;;;;;;;;;;;;;;;;;1041663;28;19924;-78
2022/10/05 02:44:20;;;;;;;;;;;;;;;;;;1040685;28;19924;-77
2022/10/05 02:44:50;;;;;;;;;;;;;;;;;;1044594;28;20581;-79
2022/10/05 02:45:21;;;;;;;;;;;;;;;;;;1042765;28;20100;-78
2022/10/05 02:45:52;;;;;;;;;;;;;;;;;;1037978;28;19913;-78
2022/10/05 02:46:23;;;;;;;;;;;;;;;;;;1036670;28;19917;-76
2022/10/05 02:46:53;;;;;;;;;;;;;;;;;;1043758;28;20308;-77
2022/10/05 02:47:26;;;;;;;;;;;;;;;;;;1041241;28;19913;-76
2022/10/05 02:47:59;;;;;;;;;;;;;;;;;;1038609;28;19916;-76
2022/10/05 02:48:29;;;;;;;;;;;;;;;;;;1035280;28;19917;-78
2022/10/05 02:49:00;;;;;;;;;;;;;;;;;;1040392;28;20368;-79
2022/10/05 02:49:31;;;;;;;;;;;;;;;;;;1042329;28;20319;-78
2022/10/05 02:50:01;;;;;;;;;;;;;;;;;;1036253;28;19990;-79
2022/10/05 02:50:32;;;;;;;;;;;;;;;;;;1040913;28;20365;-78
2022/10/05 02:51:03;;;;;;;;;;;;;;;;;;1039518;28;20685;-78
2022/10/05 02:51:33;;;;;;;;;;;;;;;;;;1034669;28;19924;-77
2022/10/05 02:52:04;;;;;;;;;;;;;;;;;;1038034;28;19920;-77
2022/10/05 02:52:34;;;;;;;;;;;;;;;;;;1031232;28;20020;-79
2022/10/05 02:53:05;;;;;;;;;;;;;;;;;;1038083;28;19917;-79
2022/10/05 02:53:36;;;;;;;;;;;;;;;;;;1039974;28;19913;-79
2022/10/05 02:54:06;;;;;;;;;;;;;;;;;;1039618;28;20431;-79
2022/10/05 02:54:37;;;;;;;;;;;;;;;;;;1045198;28;20433;-79
2022/10/05 02:55:08;;;;;;;;;;;;;;;;;;1042330;28;20005;-80
2022/10/05 02:55:38;;;;;;;;;;;;;;;;;;1037508;28;20254;-79
2022/10/05 02:56:09;;;;;;;;;;;;;;;;;;1041108;28;20025;-79
2022/10/05 02:56:40;;;;;;;;;;;;;;;;;;1045727;28;19982;-79
2022/10/05 02:57:11;;;;;;;;;;;;;;;;;;1040804;28;20058;-78
2022/10/05 02:57:41;;;;;;;;;;;;;;;;;;1039801;28;19970;-79
2022/10/05 02:58:11;;;;;;;;;;;;;;;;;;1040509;28;19924;-78
2022/10/05 02:58:42;;;;;;;;;;;;;;;;;;1037297;28;19929;-80
2022/10/05 02:59:15;;;;;;;;;;;;;;;;;;1042525;28;19917;-79
2022/10/05 02:59:46;;;;;;;;;;;;;;;;;;1038316;28;19975;-78
2022/10/05 03:00:16;;;;;;;;;;;;;;;;;;1033026;28;20321;-79
2022/10/05 03:00:47;;;;;;;;;;;;;;;;;;1034599;28;20386;-80
2022/10/05 03:01:17;;;;;;;;;;;;;;;;;;1035651;28;19952;-77
2022/10/05 03:01:47;;;;;;;;;;;;;;;;;;1039666;28;19921;-78
2022/10/05 03:02:18;;;;;;;;;;;;;;;;;;1037334;28;19928;-79
2022/10/05 03:02:48;;;;;;;;;;;;;;;;;;1038907;28;19971;-80
2022/10/05 03:03:19;;;;;;;;;;;;;;;;;;1035782;28;19918;-80
2022/10/05 03:03:50;;;;;;;;;;;;;;;;;;1034163;28;20406;-77
2022/10/05 03:04:20;;;;;;;;;;;;;;;;;;1033608;28;19929;-78
2022/10/05 03:05:00;;;;;;;;;;;;;;;;;;1030303;28;20500;-76
2022/10/05 03:05:31;;;;;;;;;;;;;;;;;;1039728;28;19955;-78
2022/10/05 03:06:01;;;;;;;;;;;;;;;;;;1040329;28;19921;-78
2022/10/05 03:06:31;;;;;;;;;;;;;;;;;;1042656;28;19918;-78
2022/10/05 03:07:02;;;;;;;;;;;;;;;;;;1043622;28;20689;-79
2022/10/05 03:07:32;;;;;;;;;;;;;;;;;;1039160;28;19952;-78
2022/10/05 03:08:02;;;;;;;;;;;;;;;;;;1040272;28;20532;-78
2022/10/05 03:08:33;;;;;;;;;;;;;;;;;;1039975;28;19921;-79
2022/10/05 03:09:03;;;;;;;;;;;;;;;;;;1038817;28;20412;-78
2022/10/05 03:09:34;;;;;;;;;;;;;;;;;;1039408;28;20701;-78
2022/10/05 03:10:04;;;;;;;;;;;;;;;;;;1038398;28;20412;-78
2022/10/05 03:10:37;;;;;;;;;;;;;;;;;;1036718;28;19940;-80
2022/10/05 03:11:07;;;;;;;;;;;;;;;;;;1041838;28;19920;-79
2022/10/05 03:11:38;;;;;;;;;;;;;;;;;;1043778;28;20403;-79
2022/10/05 03:12:08;;;;;;;;;;;;;;;;;;1045682;28;19920;-80
2022/10/05 03:12:39;;;;;;;;;;;;;;;;;;1046252;28;19960;-78
2022/10/05 03:13:09;;;;;;;;;;;;;;;;;;1046784;28;19916;-77
2022/10/05 03:13:39;;;;;;;;;;;;;;;;;;1046546;28;19917;-80
2022/10/05 03:14:13;;;;;;;;;;;;;;;;;;1041964;28;19916;-80
2022/10/05 03:14:43;;;;;;;;;;;;;;;;;;1041115;28;19913;-78
2022/10/05 03:15:13;;;;;;;;;;;;;;;;;;1038610;28;19914;-77
2022/10/05 03:15:44;;;;;;;;;;;;;;;;;;1042857;28;19916;-77
2022/10/05 03:16:14;;;;;;;;;;;;;;;;;;1044856;28;20363;-78
2022/10/05 03:16:45;;;;;;;;;;;;;;;;;;1046894;28;19968;-77
2022/10/05 03:17:15;;;;;;;;;;;;;;;;;;1041862;28;19913;-79
2022/10/05 03:17:46;;;;;;;;;;;;;;;;;;1040002;28;20245;-78
2022/10/05 03:18:16;;;;;;;;;;;;;;;;;;1036717;28;20431;-78
2022/10/05 03:18:46;;;;;;;;;;;;;;;;;;1037595;28;20027;-78
2022/10/05 03:19:17;;;;;;;;;;;;;;;;;;1042844;28;19916;-78
2022/10/05 03:19:47;;;;;;;;;;;;;;;;;;1037288;28;19921;-78
2022/10/05 03:20:18;;;;;;;;;;;;;;;;;;1041332;28;19920;-78
2022/10/05 03:20:48;;;;;;;;;;;;;;;;;;1037525;28;19926;-78
2022/10/05 03:21:19;;;;;;;;;;;;;;;;;;1038229;28;19949;-77
2022/10/05 03:21:49;;;;;;;;;;;;;;;;;;1037694;28;19921;-78
2022/10/05 03:22:20;;;;;;;;;;;;;;;;;;1037286;28;19918;-78
2022/10/05 03:22:50;;;;;;;;;;;;;;;;;;1036359;28;19966;-79
2022/10/05 03:23:20;;;;;;;;;;;;;;;;;;1037277;28;19976;-78
2022/10/05 03:23:51;;;;;;;;;;;;;;;;;;1034423;28;20011;-78
2022/10/05 03:24:21;;;;;;;;;;;;;;;;;;1033112;28;20603;-78
2022/10/05 03:24:51;;;;;;;;;;;;;;;;;;1032835;28;19917;-78
2022/10/05 03:25:22;;;;;;;;;;;;;;;;;;1037768;28;19952;-78
2022/10/05 03:25:52;;;;;;;;;;;;;;;;;;1036523;28;20008;-76
2022/10/05 03:26:22;;;;;;;;;;;;;;;;;;1037544;28;20313;-79
2022/10/05 03:26:53;;;;;;;;;;;;;;;;;;1038989;28;20379;-79
2022/10/05 03:27:23;;;;;;;;;;;;;;;;;;1037678;28;19921;-79
2022/10/05 03:27:54;;;;;;;;;;;;;;;;;;1038178;28;19917;-78
2022/10/05 03:28:24;;;;;;;;;;;;;;;;;;1037393;28;19913;-77
2022/10/05 03:28:54;;;;;;;;;;;;;;;;;;1037980;28;19956;-77
2022/10/05 03:29:25;;;;;;;;;;;;;;;;;;1046911;28;20454;-77